Time,TemperatureF,DewpointF,PressureIn,WindDirection,WindDirectionDegrees,WindSpeedMPH,WindSpeedGustMPH,Humidity,HourlyPrecipIn,Conditions,Clouds,dailyrainin,SoftwareType,DateUTC
2013-03-03 00:01:00,7.7,3.6,30.11,North,0,0.0,0.0,83,0.00,,,0.00,WUHU216HW,2013-03-03 06:01:00,
2013-03-03 00:06:00,8.1,4.2,30.11,North,0,0.0,0.4,84,0.00,,,0.00,WUHU216HW,2013-03-03 06:06:00,
2013-03-03 00:11:00,8.3,4.1,30.12,North,0,0.0,0.4,83,0.00,,,0.00,WUHU216HW,2013-03-03 06:11:00,
2013-03-03 00:16:00,8.5,4.3,30.12,North,0,0.0,0.7,83,0.00,,,0.00,WUHU216HW,2013-03-03 06:16:00,
2013-03-03 00:21:00,8.3,4.1,30.11,North,0,0.0,0.9,83,0.00,,,0.00,WUHU216HW,2013-03-03 06:21:00,
2013-03-03 00:26:00,7.7,3.9,30.11,North,0,0.0,0.9,84,0.00,,,0.00,WUHU216HW,2013-03-03 06:26:00,
2013-03-03 00:31:00,7.4,3.2,30.10,North,0,0.0,0.0,83,0.00,,,0.00,WUHU216HW,2013-03-03 06:31:00,
2013-03-03 00:36:00,6.7,2.5,30.11,North,0,0.9,2.0,83,0.00,,,0.00,WUHU216HW,2013-03-03 06:36:00,
2013-03-03 00:41:00,6.5,2.3,30.11,North,0,0.9,2.0,83,0.00,,,0.00,WUHU216HW,2013-03-03 06:41:00,
2013-03-03 00:46:00,6.5,2.3,30.11,North,0,1.1,1.1,83,0.00,,,0.00,WUHU216HW,2013-03-03 06:46:00,
2013-03-03 00:51:00,6.8,2.7,30.11,North,0,0.4,1.6,83,0.00,,,0.00,WUHU216HW,2013-03-03 06:51:00,
2013-03-03 00:56:00,6.7,2.5,30.11,North,0,0.0,1.6,83,0.00,,,0.00,WUHU216HW,2013-03-03 06:56:00,
2013-03-03 01:01:00,6.1,2.0,30.11,North,0,0.0,0.4,83,0.00,,,0.00,WUHU216HW,2013-03-03 07:01:00,
2013-03-03 01:06:00,5.8,1.6,30.11,North,0,0.0,0.0,83,0.00,,,0.00,WUHU216HW,2013-03-03 07:06:00,
2013-03-03 01:11:00,5.2,1.1,30.11,North,0,0.0,0.7,83,0.00,,,0.00,WUHU216HW,2013-03-03 07:11:00,
2013-03-03 01:16:00,4.9,0.7,30.11,North,0,0.0,0.7,83,0.00,,,0.00,WUHU216HW,2013-03-03 07:16:00,
2013-03-03 01:21:00,4.5,0.2,30.11,North,0,0.0,0.0,82,0.00,,,0.00,WUHU216HW,2013-03-03 07:21:00,
2013-03-03 01:26:00,4.5,0.2,30.11,North,0,0.0,0.2,82,0.00,,,0.00,WUHU216HW,2013-03-03 07:26:00,
2013-03-03 01:31:00,4.3,0.2,30.10,North,0,0.0,0.2,83,0.00,,,0.00,WUHU216HW,2013-03-03 07:31:00,
2013-03-03 01:36:00,4.0,-0.2,30.10,North,0,0.0,0.0,83,0.00,,,0.00,WUHU216HW,2013-03-03 07:36:00,
2013-03-03 01:41:00,3.8,-0.5,30.10,North,0,0.0,0.0,82,0.00,,,0.00,WUHU216HW,2013-03-03 07:41:00,
2013-03-03 01:46:00,3.8,-0.5,30.10,North,0,0.0,0.0,82,0.00,,,0.00,WUHU216HW,2013-03-03 07:46:00,
2013-03-03 01:51:00,3.8,-0.4,30.10,North,0,0.0,0.0,83,0.00,,,0.00,WUHU216HW,2013-03-03 07:51:00,
2013-03-03 01:56:00,3.6,-0.5,30.09,North,0,0.0,0.0,83,0.00,,,0.00,WUHU216HW,2013-03-03 07:56:00,
2013-03-03 02:01:00,3.4,-0.9,30.09,North,0,0.0,0.0,82,0.00,,,0.00,WUHU216HW,2013-03-03 08:01:00,
2013-03-03 02:06:00,3.2,-1.1,30.09,North,0,0.0,0.0,82,0.00,,,0.00,WUHU216HW,2013-03-03 08:06:00,
2013-03-03 02:11:00,3.2,-1.1,30.09,North,0,0.0,0.0,82,0.00,,,0.00,WUHU216HW,2013-03-03 08:11:00,
2013-03-03 02:16:00,3.2,-0.9,30.09,North,0,0.0,0.0,83,0.00,,,0.00,WUHU216HW,2013-03-03 08:16:00,
2013-03-03 02:21:00,3.2,-0.9,30.09,North,0,0.0,0.0,83,0.00,,,0.00,WUHU216HW,2013-03-03 08:21:00,
2013-03-03 02:26:00,3.2,-0.9,30.09,North,0,0.0,0.2,83,0.00,,,0.00,WUHU216HW,2013-03-03 08:26:00,
2013-03-03 02:31:00,3.8,-0.4,30.09,North,0,0.0,0.2,83,0.00,,,0.00,WUHU216HW,2013-03-03 08:31:00,
2013-03-03 02:36:00,3.8,-0.4,30.09,North,0,0.0,0.0,83,0.00,,,0.00,WUHU216HW,2013-03-03 08:36:00,
2013-03-03 02:41:00,3.2,-1.1,30.09,North,0,0.0,0.0,82,0.00,,,0.00,WUHU216HW,2013-03-03 08:41:00,
2013-03-03 02:46:00,2.9,-1.4,30.08,North,0,0.0,0.0,82,0.00,,,0.00,WUHU216HW,2013-03-03 08:46:00,
2013-03-03 02:51:00,2.5,-1.8,30.08,North,0,0.0,0.0,82,0.00,,,0.00,WUHU216HW,2013-03-03 08:51:00,
2013-03-03 02:56:00,2.0,-2.3,30.08,North,0,0.0,0.0,82,0.00,,,0.00,WUHU216HW,2013-03-03 08:56:00,
2013-03-03 03:01:00,1.6,-2.7,30.08,North,0,0.0,0.0,82,0.00,,,0.00,WUHU216HW,2013-03-03 09:01:00,
2013-03-03 03:06:00,1.6,-2.7,30.08,North,0,0.0,0.0,82,0.00,,,0.00,WUHU216HW,2013-03-03 09:06:00,
2013-03-03 03:11:00,1.6,-2.7,30.08,North,0,0.0,0.0,82,0.00,,,0.00,WUHU216HW,2013-03-03 09:11:00,
2013-03-03 03:16:00,1.4,-2.9,30.08,North,0,0.0,0.0,82,0.00,,,0.00,WUHU216HW,2013-03-03 09:16:00,
2013-03-03 03:21:00,1.6,-2.7,30.08,North,0,0.0,0.0,82,0.00,,,0.00,WUHU216HW,2013-03-03 09:21:00,
2013-03-03 03:26:00,1.4,-2.9,30.08,North,0,0.0,0.0,82,0.00,,,0.00,WUHU216HW,2013-03-03 09:26:00,
2013-03-03 03:31:00,1.3,-3.0,30.08,North,0,0.0,0.0,82,0.00,,,0.00,WUHU216HW,2013-03-03 09:31:00,
2013-03-03 03:36:00,1.3,-3.0,30.07,North,0,0.0,0.0,82,0.00,,,0.00,WUHU216HW,2013-03-03 09:36:00,
2013-03-03 03:41:00,1.1,-3.2,30.08,North,0,0.0,0.0,82,0.00,,,0.00,WUHU216HW,2013-03-03 09:41:00,
2013-03-03 03:46:00,1.1,-3.2,30.08,North,0,0.0,0.0,82,0.00,,,0.00,WUHU216HW,2013-03-03 09:46:00,
2013-03-03 03:51:00,1.3,-3.0,30.08,North,0,0.0,0.0,82,0.00,,,0.00,WUHU216HW,2013-03-03 09:51:00,
2013-03-03 03:56:00,1.3,-3.0,30.08,North,0,0.0,0.0,82,0.00,,,0.00,WUHU216HW,2013-03-03 09:56:00,
2013-03-03 04:01:00,1.3,-3.0,30.08,North,0,0.0,0.0,82,0.00,,,0.00,WUHU216HW,2013-03-03 10:01:00,
2013-03-03 04:06:00,1.6,-2.7,30.08,North,0,0.0,0.0,82,0.00,,,0.00,WUHU216HW,2013-03-03 10:06:00,
2013-03-03 04:11:00,1.6,-2.7,30.08,North,0,0.0,0.0,82,0.00,,,0.00,WUHU216HW,2013-03-03 10:11:00,
2013-03-03 04:16:00,1.6,-2.7,30.09,North,0,0.0,0.0,82,0.00,,,0.00,WUHU216HW,2013-03-03 10:16:00,
2013-03-03 04:21:00,1.6,-2.7,30.09,North,0,0.7,0.9,82,0.00,,,0.00,WUHU216HW,2013-03-03 10:21:00,
2013-03-03 04:26:00,2.3,-1.8,30.09,North,0,0.0,0.9,83,0.00,,,0.00,WUHU216HW,2013-03-03 10:26:00,
2013-03-03 04:31:00,2.5,-1.6,30.09,North,0,0.0,0.4,83,0.00,,,0.00,WUHU216HW,2013-03-03 10:31:00,
2013-03-03 04:36:00,3.1,-1.1,30.09,North,0,0.0,0.2,83,0.00,,,0.00,WUHU216HW,2013-03-03 10:36:00,
2013-03-03 04:41:00,3.6,-0.3,30.09,North,0,0.0,0.7,84,0.00,,,0.00,WUHU216HW,2013-03-03 10:41:00,
2013-03-03 04:46:00,3.2,-0.9,30.09,North,0,0.0,0.7,83,0.00,,,0.00,WUHU216HW,2013-03-03 10:46:00,
2013-03-03 04:51:00,2.7,-1.4,30.09,North,0,0.0,0.0,83,0.00,,,0.00,WUHU216HW,2013-03-03 10:51:00,
2013-03-03 04:56:00,2.3,-2.0,30.09,North,0,0.0,0.0,82,0.00,,,0.00,WUHU216HW,2013-03-03 10:56:00,
2013-03-03 05:01:00,2.0,-2.3,30.09,North,0,0.0,0.0,82,0.00,,,0.00,WUHU216HW,2013-03-03 11:01:00,
2013-03-03 05:06:00,1.8,-2.5,30.09,North,0,0.0,0.0,82,0.00,,,0.00,WUHU216HW,2013-03-03 11:06:00,
2013-03-03 05:11:00,1.8,-2.5,30.09,North,0,0.0,0.0,82,0.00,,,0.00,WUHU216HW,2013-03-03 11:11:00,
2013-03-03 05:16:00,1.8,-2.5,30.10,North,0,0.0,0.0,82,0.00,,,0.00,WUHU216HW,2013-03-03 11:16:00,
2013-03-03 05:21:00,1.8,-2.5,30.09,North,0,0.4,1.1,82,0.00,,,0.00,WUHU216HW,2013-03-03 11:21:00,
2013-03-03 05:26:00,1.4,-2.9,30.10,North,0,0.2,1.1,82,0.00,,,0.00,WUHU216HW,2013-03-03 11:26:00,
2013-03-03 05:31:00,1.3,-3.0,30.09,North,0,0.0,1.1,82,0.00,,,0.00,WUHU216HW,2013-03-03 11:31:00,
2013-03-03 05:36:00,1.3,-3.0,30.09,North,0,0.0,1.1,82,0.00,,,0.00,WUHU216HW,2013-03-03 11:36:00,
2013-03-03 05:41:00,1.1,-3.2,30.10,North,0,0.0,0.0,82,0.00,,,0.00,WUHU216HW,2013-03-03 11:41:00,
2013-03-03 05:46:00,1.1,-3.2,30.10,North,0,0.0,0.0,82,0.00,,,0.00,WUHU216HW,2013-03-03 11:46:00,
2013-03-03 05:51:00,1.1,-3.2,30.10,North,0,0.0,0.0,82,0.00,,,0.00,WUHU216HW,2013-03-03 11:51:00,
2013-03-03 05:56:00,0.7,-3.6,30.10,North,0,0.0,0.0,82,0.00,,,0.00,WUHU216HW,2013-03-03 11:56:00,
2013-03-03 06:01:00,0.4,-3.9,30.10,North,0,0.0,0.0,82,0.00,,,0.00,WUHU216HW,2013-03-03 12:01:00,
2013-03-03 06:06:00,0.0,-4.2,30.10,North,0,0.0,0.0,82,0.00,,,0.00,WUHU216HW,2013-03-03 12:06:00,
2013-03-03 06:11:00,-0.4,-4.8,30.10,North,0,0.0,0.0,81,0.00,,,0.00,WUHU216HW,2013-03-03 12:11:00,
2013-03-03 06:16:00,-0.7,-5.1,30.10,North,0,0.0,0.0,81,0.00,,,0.00,WUHU216HW,2013-03-03 12:16:00,
2013-03-03 06:21:00,-0.9,-5.3,30.10,North,0,0.0,0.0,81,0.00,,,0.00,WUHU216HW,2013-03-03 12:21:00,
2013-03-03 06:26:00,-1.1,-5.5,30.10,North,0,0.0,0.0,81,0.00,,,0.00,WUHU216HW,2013-03-03 12:26:00,
2013-03-03 06:31:00,-0.7,-5.1,30.10,North,0,0.0,0.0,81,0.00,,,0.00,WUHU216HW,2013-03-03 12:31:00,
2013-03-03 06:36:00,-0.4,-4.6,30.10,North,0,0.2,0.7,82,0.00,,,0.00,WUHU216HW,2013-03-03 12:36:00,
2013-03-03 06:41:00,-0.5,-4.8,30.10,North,0,0.9,0.9,82,0.00,,,0.00,WUHU216HW,2013-03-03 12:41:00,
2013-03-03 06:46:00,0.0,-4.2,30.10,North,0,0.7,1.1,82,0.00,,,0.00,WUHU216HW,2013-03-03 12:46:00,
2013-03-03 06:51:00,0.7,-3.6,30.10,North,0,1.1,1.6,82,0.00,,,0.00,WUHU216HW,2013-03-03 12:51:00,
2013-03-03 06:56:00,1.6,-2.2,30.10,North,0,1.1,1.6,84,0.00,,,0.00,WUHU216HW,2013-03-03 12:56:00,
2013-03-03 07:01:00,2.3,-1.5,30.10,North,0,0.4,1.8,84,0.00,,,0.00,WUHU216HW,2013-03-03 13:01:00,
2013-03-03 07:06:00,2.9,-1.0,30.10,North,0,0.7,1.8,84,0.00,,,0.00,WUHU216HW,2013-03-03 13:06:00,
2013-03-03 07:11:00,3.2,-0.6,30.10,North,0,0.7,1.1,84,0.00,,,0.00,WUHU216HW,2013-03-03 13:11:00,
2013-03-03 07:16:00,4.0,0.1,30.10,North,0,0.0,0.7,84,0.00,,,0.00,WUHU216HW,2013-03-03 13:16:00,
2013-03-03 07:21:00,6.1,2.5,30.10,North,0,0.0,0.7,85,0.00,,,0.00,WUHU216HW,2013-03-03 13:21:00,
2013-03-03 07:26:00,9.2,5.1,30.10,North,0,0.0,0.0,83,0.00,,,0.00,WUHU216HW,2013-03-03 13:26:00,
2013-03-03 07:31:00,8.1,3.2,30.10,North,0,0.4,0.7,80,0.00,,,0.00,WUHU216HW,2013-03-03 13:31:00,
2013-03-03 07:36:00,6.7,1.8,30.11,North,0,0.0,0.7,80,0.00,,,0.00,WUHU216HW,2013-03-03 13:36:00,
2013-03-03 07:41:00,6.3,1.7,30.10,North,0,0.0,0.4,81,0.00,,,0.00,WUHU216HW,2013-03-03 13:41:00,
2013-03-03 07:46:00,6.8,2.5,30.10,North,0,0.0,0.9,82,0.00,,,0.00,WUHU216HW,2013-03-03 13:46:00,
2013-03-03 07:51:00,7.6,3.3,30.10,North,0,0.0,0.9,82,0.00,,,0.00,WUHU216HW,2013-03-03 13:51:00,
2013-03-03 07:56:00,8.1,4.0,30.11,North,0,0.0,0.4,83,0.00,,,0.00,WUHU216HW,2013-03-03 13:56:00,
2013-03-03 08:01:00,8.6,4.5,30.10,North,0,0.0,0.4,83,0.00,,,0.00,WUHU216HW,2013-03-03 14:01:00,
2013-03-03 08:06:00,9.2,5.1,30.10,North,0,0.0,0.2,83,0.00,,,0.00,WUHU216HW,2013-03-03 14:06:00,
2013-03-03 08:11:00,9.9,5.7,30.11,North,0,0.0,0.2,83,0.00,,,0.00,WUHU216HW,2013-03-03 14:11:00,
2013-03-03 08:16:00,10.8,6.6,30.10,NNE,23,0.0,1.6,83,0.00,,,0.00,WUHU216HW,2013-03-03 14:16:00,
2013-03-03 08:21:00,11.5,7.0,30.11,North,0,0.0,1.6,82,0.00,,,0.00,WUHU216HW,2013-03-03 14:21:00,
2013-03-03 08:26:00,12.4,7.9,30.10,NE,45,0.0,1.1,82,0.00,,,0.00,WUHU216HW,2013-03-03 14:26:00,
2013-03-03 08:31:00,13.1,8.6,30.10,West,270,0.2,1.8,82,0.00,,,0.00,WUHU216HW,2013-03-03 14:31:00,
2013-03-03 08:36:00,13.9,9.6,30.10,NNE,23,0.2,1.8,83,0.00,,,0.00,WUHU216HW,2013-03-03 14:36:00,
2013-03-03 08:41:00,14.6,10.4,30.10,NNW,338,1.1,1.1,83,0.00,,,0.00,WUHU216HW,2013-03-03 14:41:00,
2013-03-03 08:46:00,15.5,11.0,30.10,NE,45,0.7,1.6,82,0.00,,,0.00,WUHU216HW,2013-03-03 14:46:00,
2013-03-03 08:51:00,16.0,11.3,30.10,NNW,338,0.7,1.6,81,0.00,,,0.00,WUHU216HW,2013-03-03 14:51:00,
2013-03-03 08:56:00,16.2,11.2,30.10,North,0,1.8,1.8,80,0.00,,,0.00,WUHU216HW,2013-03-03 14:56:00,
2013-03-03 09:01:00,16.2,10.3,30.10,North,0,1.1,2.7,77,0.00,,,0.00,WUHU216HW,2013-03-03 15:01:00,
2013-03-03 09:06:00,16.2,9.6,30.10,North,0,1.1,2.7,75,0.00,,,0.00,WUHU216HW,2013-03-03 15:06:00,
2013-03-03 09:11:00,16.7,9.8,30.10,North,0,1.8,2.5,74,0.00,,,0.00,WUHU216HW,2013-03-03 15:11:00,
2013-03-03 09:16:00,17.3,10.1,30.10,West,270,0.7,2.5,73,0.00,,,0.00,WUHU216HW,2013-03-03 15:16:00,
2013-03-03 09:21:00,17.6,10.1,30.10,North,0,1.1,2.9,72,0.00,,,0.00,WUHU216HW,2013-03-03 15:21:00,
2013-03-03 09:26:00,18.2,10.4,30.10,NE,45,0.9,2.9,71,0.00,,,0.00,WUHU216HW,2013-03-03 15:26:00,
2013-03-03 09:31:00,18.4,10.4,30.10,NNW,338,2.7,2.9,71,0.00,,,0.00,WUHU216HW,2013-03-03 15:31:00,
2013-03-03 09:36:00,18.7,10.2,30.10,North,0,1.8,2.9,69,0.00,,,0.00,WUHU216HW,2013-03-03 15:36:00,
2013-03-03 09:41:00,19.1,10.5,30.10,North,0,0.9,2.7,69,0.00,,,0.00,WUHU216HW,2013-03-03 15:41:00,
2013-03-03 09:46:00,19.4,10.4,30.10,North,0,1.3,2.5,68,0.00,,,0.00,WUHU216HW,2013-03-03 15:46:00,
2013-03-03 09:51:00,20.2,11.2,30.10,South,180,0.7,2.5,68,0.00,,,0.00,WUHU216HW,2013-03-03 15:51:00,
2013-03-03 09:56:00,20.7,11.7,30.10,North,0,0.4,2.0,68,0.00,,,0.00,WUHU216HW,2013-03-03 15:56:00,
2013-03-03 10:01:00,21.1,11.4,30.10,North,0,1.6,2.0,66,0.00,,,0.00,WUHU216HW,2013-03-03 16:01:00,
2013-03-03 10:06:00,21.4,11.8,30.10,North,0,2.0,2.0,66,0.00,,,0.00,WUHU216HW,2013-03-03 16:06:00,
2013-03-03 10:11:00,22.0,12.6,30.10,North,0,1.3,2.0,67,0.00,,,0.00,WUHU216HW,2013-03-03 16:11:00,
2013-03-03 10:16:00,22.7,13.0,30.10,North,0,1.8,2.5,66,0.00,,,0.00,WUHU216HW,2013-03-03 16:16:00,
2013-03-03 10:21:00,22.7,12.2,30.10,ESE,113,1.1,2.5,64,0.00,,,0.00,WUHU216HW,2013-03-03 16:21:00,
2013-03-03 10:26:00,22.7,12.2,30.10,North,0,1.6,2.0,64,0.00,,,0.00,WUHU216HW,2013-03-03 16:26:00,
2013-03-03 10:31:00,22.7,12.2,30.10,North,0,1.6,1.8,64,0.00,,,0.00,WUHU216HW,2013-03-03 16:31:00,
2013-03-03 12:00:00,29.7,9.8,30.09,North,0,1.6,1.6,43,0.01,,,0.00,WUHU216HW,2013-03-03 18:00:00,
2013-03-03 12:05:00,30.2,11.3,30.09,WNW,293,0.4,1.8,45,0.01,,,0.01,WUHU216HW,2013-03-03 18:05:00,
2013-03-03 12:10:00,30.8,11.8,30.09,NNW,338,1.6,2.5,45,0.01,,,0.01,WUHU216HW,2013-03-03 18:10:00,
2013-03-03 12:15:00,31.0,11.5,30.08,NE,45,1.3,2.7,44,0.02,,,0.02,WUHU216HW,2013-03-03 18:15:00,
2013-03-03 12:20:00,31.0,11.5,30.08,NE,45,1.3,2.7,44,0.02,,,0.02,WUHU216HW,2013-03-03 18:20:00,
2013-03-03 17:00:00,25.6,9.5,30.05,South,180,0.4,0.4,50,0.00,,,0.02,WUHU216HW,2013-03-03 23:00:00,
2013-03-03 17:05:00,25.6,9.5,30.05,South,180,0.4,0.4,50,0.00,,,0.02,WUHU216HW,2013-03-03 23:05:00,
2013-03-03 20:00:00,11.3,2.8,30.05,NNE,23,0.0,0.0,68,0.00,,,0.04,WUHU216HW,2013-03-04 02:00:00,
2013-03-03 20:05:00,11.2,2.6,30.05,NNE,23,0.0,0.0,68,0.00,,,0.04,WUHU216HW,2013-03-04 02:05:00,
2013-03-03 20:10:00,11.2,2.6,30.05,NNE,23,0.0,0.0,68,0.00,,,0.04,WUHU216HW,2013-03-04 02:10:00,
2013-03-03 20:15:00,10.6,2.1,30.05,NNE,23,0.0,0.0,68,0.00,,,0.04,WUHU216HW,2013-03-04 02:15:00,
2013-03-03 20:20:00,10.4,1.9,30.06,NNE,23,0.0,0.0,68,0.00,,,0.04,WUHU216HW,2013-03-04 02:20:00,
2013-03-03 20:25:00,10.1,1.5,30.06,NNE,23,0.0,0.0,68,0.00,,,0.04,WUHU216HW,2013-03-04 02:25:00,
2013-03-03 20:30:00,9.7,1.2,30.06,NNE,23,0.0,0.0,68,0.00,,,0.04,WUHU216HW,2013-03-04 02:30:00,
2013-03-03 20:35:00,9.7,1.2,30.06,NNE,23,0.0,0.0,68,0.00,,,0.04,WUHU216HW,2013-03-04 02:35:00,
2013-03-03 20:40:00,9.7,1.2,30.06,NNE,23,0.0,0.0,68,0.00,,,0.04,WUHU216HW,2013-03-04 02:40:00,
2013-03-03 21:00:00,9.4,2.2,30.06,North,0,1.1,1.1,72,0.00,,,0.04,WUHU216HW,2013-03-04 03:00:00,
2013-03-03 21:05:00,9.5,2.6,30.06,North,0,0.9,1.1,73,0.00,,,0.04,WUHU216HW,2013-03-04 03:05:00,
2013-03-03 21:10:00,9.5,2.9,30.06,North,0,1.1,1.1,74,0.00,,,0.04,WUHU216HW,2013-03-04 03:10:00,
2013-03-03 21:15:00,9.5,2.9,30.06,North,0,1.1,1.1,74,0.00,,,0.04,WUHU216HW,2013-03-04 03:15:00,